createdAt,value
2018-11-12T00:02:30.153Z,47.53
2018-11-12T00:04:59.441Z,51.00
2018-11-12T00:07:28.742Z,54.80
2018-11-12T00:09:58.094Z,46.73
2018-11-12T00:12:29.776Z,52.27
2018-11-12T00:14:59.492Z,46.83
2018-11-12T00:17:28.858Z,54.80
2018-11-12T00:19:58.170Z,52.70
2018-11-12T00:22:28.560Z,46.87
2018-11-12T00:24:57.965Z,51.50
2018-11-12T00:27:29.090Z,54.33
2018-11-12T00:29:58.685Z,50.63
2018-11-12T00:32:28.330Z,52.90
2018-11-12T00:34:59.014Z,49.63
2018-11-12T00:37:29.689Z,38.80
2018-11-12T00:40:01.656Z,52.93
2018-11-12T00:42:31.195Z,55.70
2018-11-12T00:45:02.211Z,64.80
2018-11-12T00:47:32.325Z,61.47
2018-11-12T00:50:04.313Z,73.40
2018-11-12T00:52:33.713Z,74.30
2018-11-12T00:55:02.987Z,71.60
2018-11-12T00:57:32.225Z,62.13
2018-11-12T01:00:01.979Z,61.00
2018-11-12T01:02:31.346Z,57.97
2018-11-12T01:05:01.650Z,57.50
2018-11-12T01:07:30.927Z,54.67
2018-11-12T01:10:00.150Z,54.70
2018-11-12T01:12:31.895Z,53.50
2018-11-12T01:15:01.152Z,52.07
2018-11-12T01:17:31.589Z,52.63
2018-11-12T01:20:00.765Z,48.87
2018-11-12T01:22:30.050Z,48.67
2018-11-12T01:24:59.315Z,49.47
2018-11-12T01:27:29.459Z,49.70
2018-11-12T01:29:58.733Z,44.70
2018-11-12T01:32:28.100Z,47.77
2018-11-12T01:35:00.030Z,44.00
2018-11-12T01:37:29.972Z,47.03
2018-11-12T01:39:59.253Z,50.07
2018-11-12T01:42:28.435Z,50.33
2018-11-12T01:45:01.752Z,50.23
2018-11-12T01:47:31.015Z,49.43
2018-11-12T01:50:00.427Z,49.97
2018-11-12T01:52:29.755Z,50.40
2018-11-12T01:54:59.933Z,49.67
2018-11-12T01:57:29.902Z,49.70
2018-11-12T01:59:59.518Z,46.50
2018-11-12T02:02:28.693Z,49.50
2018-11-12T02:04:58.091Z,49.33
2018-11-12T02:07:27.919Z,47.33
2018-11-12T02:09:59.918Z,46.97
2018-11-12T02:12:29.124Z,47.03
2018-11-12T02:14:58.453Z,48.97
2018-11-12T02:17:29.044Z,43.73
2018-11-12T02:19:59.429Z,46.13
2018-11-12T02:22:28.985Z,44.93
2018-11-12T02:25:00.152Z,48.17
2018-11-12T02:27:29.696Z,48.10
2018-11-12T02:29:59.018Z,48.20
2018-11-12T02:32:28.929Z,45.10
2018-11-12T02:34:58.023Z,47.30
2018-11-12T02:37:28.423Z,47.77
2018-11-12T02:39:58.842Z,46.90
2018-11-12T02:42:28.603Z,48.80
2018-11-12T02:44:57.707Z,45.47
2018-11-12T02:47:28.743Z,46.23
2018-11-12T02:50:00.258Z,46.00
2018-11-12T02:52:32.554Z,43.80
2018-11-12T02:55:05.920Z,46.37
2018-11-12T02:57:42.151Z,43.40
2018-11-12T03:00:13.981Z,46.80
2018-11-12T03:02:45.199Z,45.47
2018-11-12T03:05:14.516Z,47.80
2018-11-12T03:07:44.417Z,46.53
2018-11-12T03:10:20.550Z,43.53
2018-11-12T03:12:50.491Z,48.27
2018-11-12T03:15:20.834Z,49.33
2018-11-12T03:17:50.914Z,46.93
2018-11-12T03:20:23.947Z,47.10
2018-11-12T03:22:53.182Z,46.77
2018-11-12T03:25:24.599Z,44.93
2018-11-12T03:27:54.022Z,49.07
2018-11-12T03:30:26.120Z,51.37
2018-11-12T03:32:55.421Z,48.13
2018-11-12T03:35:26.238Z,51.47
2018-11-12T03:37:56.978Z,56.20
2018-11-12T03:40:27.867Z,56.07
2018-11-12T03:42:57.758Z,55.20
2018-11-12T03:45:35.733Z,55.73
2018-11-12T03:48:07.288Z,44.97
2018-11-12T03:50:37.001Z,48.47
2018-11-12T03:53:06.190Z,48.60
2018-11-12T03:55:35.389Z,49.53
2018-11-12T03:58:04.399Z,48.23
2018-11-12T04:00:33.874Z,44.53
2018-11-12T04:03:02.927Z,48.07
2018-11-12T04:05:38.006Z,47.90
2018-11-12T04:08:08.856Z,50.00
2018-11-12T04:10:42.629Z,45.40
2018-11-12T04:13:12.790Z,48.57
2018-11-12T04:15:44.956Z,48.37
2018-11-12T04:18:19.504Z,49.53
2018-11-12T04:20:51.950Z,45.83
2018-11-12T04:23:25.814Z,45.87
2018-11-12T04:25:56.364Z,48.30
2018-11-12T04:28:29.555Z,46.87
2018-11-12T04:30:59.807Z,52.43
2018-11-12T04:33:29.806Z,49.13
2018-11-12T04:35:58.997Z,49.00
2018-11-12T04:38:28.314Z,48.97
2018-11-12T04:40:58.193Z,46.17
2018-11-12T04:43:27.691Z,45.03
2018-11-12T04:45:56.904Z,49.93
2018-11-12T04:48:26.121Z,49.63
2018-11-12T04:50:56.200Z,51.37
2018-11-12T04:53:25.626Z,46.43
2018-11-12T04:55:54.689Z,49.47
2018-11-12T04:58:23.966Z,46.33
2018-11-12T05:00:53.971Z,50.23
2018-11-12T05:03:23.333Z,48.50
2018-11-12T05:05:53.820Z,46.80
2018-11-12T05:08:23.838Z,48.97
2018-11-12T05:10:53.562Z,41.80
2018-11-12T05:13:22.796Z,42.60
2018-11-12T05:15:52.101Z,45.73
2018-11-12T05:18:21.230Z,45.97
2018-11-12T05:20:50.158Z,49.40
2018-11-12T05:23:20.069Z,46.23
2018-11-12T05:25:49.045Z,49.23
2018-11-12T05:28:18.025Z,50.47
2018-11-12T05:30:47.122Z,57.03
2018-11-12T05:33:16.073Z,46.10
2018-11-12T05:51:25.832Z,50.10
2018-11-12T05:54:01.875Z,42.60
2018-11-12T05:56:31.477Z,50.43
2018-11-12T05:59:00.639Z,46.73
2018-11-12T06:01:30.548Z,52.27
2018-11-12T06:04:00.910Z,49.17
2018-11-12T06:06:30.613Z,41.60
2018-11-12T06:08:59.662Z,48.33
2018-11-12T06:11:28.943Z,40.53
2018-11-12T06:13:58.105Z,46.53
2018-11-12T06:16:27.347Z,45.57
2018-11-12T06:18:56.522Z,53.43
2018-11-12T06:21:25.844Z,53.83
2018-11-12T06:23:55.104Z,40.33
2018-11-12T06:26:24.817Z,46.60
2018-11-12T06:29:04.418Z,43.30
2018-11-12T06:31:37.062Z,39.57
2018-11-12T06:34:12.375Z,48.20
2018-11-12T06:36:47.041Z,48.07
2018-11-12T06:39:18.861Z,42.33
2018-11-12T06:42:04.891Z,46.67
2018-11-12T06:44:38.785Z,44.93
2018-11-12T06:47:10.706Z,46.97
2018-11-12T06:49:45.174Z,54.00
2018-11-12T06:52:22.999Z,52.13
2018-11-12T06:55:01.034Z,49.73
2018-11-12T06:57:42.739Z,54.60
2018-11-12T07:03:13.100Z,44.67
2018-11-12T07:05:49.932Z,42.03
2018-11-12T07:08:34.916Z,45.80
2018-11-12T07:11:13.103Z,37.53
2018-11-12T07:13:52.193Z,42.33
2018-11-12T07:16:27.113Z,40.50
2018-11-12T07:19:02.512Z,41.60
2018-11-12T07:21:46.210Z,41.93
2018-11-12T07:24:18.577Z,36.47
2018-11-12T07:26:54.871Z,45.47
2018-11-12T07:32:52.000Z,47.80
2018-11-12T07:35:30.369Z,44.57
2018-11-12T07:38:01.080Z,45.67
2018-11-12T07:40:32.954Z,44.60
2018-11-12T07:43:04.653Z,40.17
2018-11-12T07:45:42.795Z,39.90
2018-11-12T07:48:17.298Z,38.60
2018-11-12T07:50:46.659Z,33.33
2018-11-12T07:53:16.034Z,33.80
2018-11-12T07:55:45.259Z,34.90
2018-11-12T07:58:14.507Z,35.53
2018-11-12T08:00:48.292Z,29.83
2018-11-12T08:03:17.695Z,33.37
2018-11-12T08:05:49.592Z,32.57
2018-11-12T08:08:42.663Z,32.83
2018-11-12T08:48:11.887Z,29.97
2018-11-12T08:50:56.958Z,31.77
2018-11-12T09:15:46.395Z,29.27
2018-11-12T09:18:23.312Z,32.30
2018-11-12T09:20:53.751Z,33.77
2018-11-12T09:26:22.651Z,32.23
2018-11-12T09:41:37.609Z,30.67
2018-11-12T09:44:07.650Z,32.80
2018-11-12T09:46:38.505Z,33.20
2018-11-12T09:49:08.126Z,32.60
2018-11-12T09:51:37.712Z,25.50
2018-11-12T09:54:13.300Z,30.77
2018-11-12T09:56:42.622Z,32.40
2018-11-12T09:59:11.965Z,30.20
2018-11-12T10:01:42.054Z,32.77
2018-11-12T10:04:11.252Z,30.80
2018-11-12T10:06:41.868Z,31.40
2018-11-12T10:09:13.762Z,30.07
2018-11-12T10:11:43.553Z,30.53
2018-11-12T10:14:12.867Z,30.37
2018-11-12T10:16:43.085Z,29.70
2018-11-12T10:19:09.824Z,28.53
2018-11-12T10:21:39.306Z,28.93
2018-11-12T10:24:08.603Z,29.97
2018-11-12T10:26:37.783Z,29.03
2018-11-12T10:29:07.142Z,32.53
2018-11-12T10:31:36.537Z,30.43
2018-11-12T10:34:07.220Z,31.47
2018-11-12T10:36:41.978Z,29.63
2018-11-12T10:39:12.494Z,27.67
2018-11-12T10:41:41.722Z,27.43
2018-11-12T10:44:11.567Z,27.73
2018-11-12T10:46:40.917Z,28.27
2018-11-12T10:49:10.294Z,25.97
2018-11-12T10:51:39.713Z,24.23
2018-11-12T11:07:51.074Z,26.13
2018-11-12T11:10:34.608Z,27.23
2018-11-12T11:13:05.671Z,29.23
2018-11-12T11:15:35.946Z,28.00
2018-11-12T11:18:05.335Z,26.27
2018-11-12T11:20:43.519Z,27.30
2018-11-12T11:23:22.328Z,25.93
2018-11-12T11:25:52.206Z,27.00
2018-11-12T11:28:22.853Z,27.07
2018-11-12T11:30:52.276Z,26.73
2018-11-12T11:33:21.945Z,29.57
2018-11-12T11:35:51.596Z,29.83
2018-11-12T11:38:36.034Z,26.03
2018-11-12T11:41:11.915Z,28.77
2018-11-12T11:43:43.279Z,27.50
2018-11-12T11:46:13.864Z,26.17
2018-11-12T11:48:45.002Z,25.70
2018-11-12T11:51:21.441Z,27.67
2018-11-12T11:53:51.020Z,27.73
2018-11-12T11:56:30.029Z,28.40
2018-11-12T11:59:04.330Z,26.80
2018-11-12T12:01:40.585Z,27.47
2018-11-12T12:04:19.015Z,28.10
2018-11-12T12:09:48.429Z,24.73
2018-11-12T12:15:16.841Z,26.57
2018-11-12T12:17:48.287Z,25.43
2018-11-12T12:20:19.967Z,26.47
2018-11-12T12:22:49.740Z,23.27
2018-11-12T12:25:20.485Z,26.03
2018-11-12T12:27:50.484Z,27.33
2018-11-12T12:30:21.949Z,24.23
2018-11-12T12:32:53.338Z,25.90
2018-11-12T12:35:23.107Z,26.90
2018-11-12T12:37:56.970Z,22.93
2018-11-12T12:40:27.133Z,28.00
2018-11-12T12:43:01.648Z,25.50
2018-11-12T12:45:32.208Z,27.47
2018-11-12T12:48:05.655Z,28.30
2018-11-12T12:50:37.576Z,28.03
2018-11-12T12:53:08.919Z,29.93
2018-11-12T12:55:39.892Z,28.10
2018-11-12T12:58:12.290Z,30.37
2018-11-12T13:00:41.759Z,30.90
2018-11-12T13:03:11.070Z,30.93
2018-11-12T13:05:40.367Z,29.40
2018-11-12T13:08:09.502Z,32.20
2018-11-12T13:10:39.751Z,30.47
2018-11-12T13:13:08.961Z,33.10
2018-11-12T13:15:38.382Z,33.43
2018-11-12T13:18:14.316Z,31.37
2018-11-12T13:20:43.480Z,28.43
2018-11-12T13:23:12.819Z,34.37
2018-11-12T13:25:42.090Z,32.63
2018-11-12T13:28:11.295Z,33.77
2018-11-12T13:30:40.559Z,31.43
2018-11-12T13:33:09.708Z,35.63
2018-11-12T13:35:39.023Z,30.27
2018-11-12T13:38:08.257Z,33.27
2018-11-12T13:40:37.309Z,34.87
2018-11-12T13:43:07.559Z,35.60
2018-11-12T13:45:36.704Z,37.20
2018-11-12T13:48:10.545Z,30.37
2018-11-12T13:50:44.469Z,36.23
2018-11-12T13:53:13.998Z,33.27
2018-11-12T13:55:46.139Z,32.70
2018-11-12T13:58:15.671Z,33.93
2018-11-12T14:00:44.807Z,31.77
2018-11-12T14:03:14.151Z,36.00
2018-11-12T14:05:43.619Z,36.30
2018-11-12T14:08:13.670Z,33.20
2018-11-12T14:10:43.006Z,31.73
2018-11-12T14:28:58.296Z,30.43
2018-11-12T14:31:27.828Z,29.23
2018-11-12T14:37:13.533Z,33.13
2018-11-12T14:39:43.147Z,33.77
2018-11-12T14:42:12.239Z,31.23
2018-11-12T14:44:41.561Z,30.83
2018-11-12T14:47:10.953Z,34.70
2018-11-12T14:49:51.376Z,30.80
2018-11-12T14:52:20.723Z,31.97
2018-11-12T14:54:50.690Z,31.53
2018-11-12T14:57:19.933Z,37.20
2018-11-12T14:59:49.113Z,32.00
2018-11-12T15:02:18.335Z,32.70
2018-11-12T15:04:47.575Z,38.63
2018-11-12T15:07:16.863Z,43.20
2018-11-12T15:09:46.374Z,32.53
2018-11-12T15:12:16.412Z,40.90
2018-11-12T15:14:45.816Z,36.57
2018-11-12T15:17:15.749Z,38.03
2018-11-12T15:19:45.601Z,44.17
2018-11-12T15:22:14.670Z,41.00
2018-11-12T15:24:43.798Z,42.90
2018-11-12T15:27:12.985Z,41.93
2018-11-12T15:29:43.263Z,41.87
2018-11-12T15:32:12.505Z,47.63
2018-11-12T15:34:42.395Z,46.60
2018-11-12T15:37:13.024Z,43.20
2018-11-12T15:39:41.937Z,43.23
2018-11-12T15:42:10.899Z,41.93
2018-11-12T15:44:40.118Z,40.67
2018-11-12T15:47:10.152Z,38.17
2018-11-12T15:49:39.549Z,41.93
2018-11-12T15:52:08.888Z,36.13
2018-11-12T15:54:38.160Z,35.67
2018-11-12T15:57:08.343Z,41.50
2018-11-12T15:59:37.626Z,39.27
2018-11-12T16:02:12.041Z,34.90
2018-11-12T16:04:41.502Z,37.80
2018-11-12T16:07:10.805Z,36.50
2018-11-12T16:09:43.832Z,33.70
2018-11-12T16:12:14.134Z,35.80
2018-11-12T16:14:43.554Z,31.10
2018-11-12T16:17:16.406Z,33.33
2018-11-12T16:19:46.045Z,35.13
2018-11-12T16:22:15.184Z,33.50
2018-11-12T16:24:45.513Z,39.33
2018-11-12T16:27:14.816Z,37.73
2018-11-12T16:29:43.938Z,35.83
2018-11-12T16:32:19.623Z,37.47
2018-11-12T16:34:48.796Z,35.30
2018-11-12T16:37:18.045Z,36.03
2018-11-12T16:39:47.280Z,36.77
2018-11-12T16:42:16.444Z,34.50
2018-11-12T16:44:45.456Z,32.60
2018-11-12T16:47:14.534Z,32.83
2018-11-12T16:49:43.656Z,36.03
2018-11-12T16:52:12.710Z,37.17
2018-11-12T16:54:41.859Z,44.77
2018-11-12T16:57:10.859Z,41.37
2018-11-12T16:59:41.064Z,39.10
2018-11-12T17:02:10.197Z,38.80
2018-11-12T17:04:39.423Z,35.63
2018-11-12T17:07:08.604Z,40.20
2018-11-12T17:09:38.357Z,37.10
2018-11-12T17:12:07.536Z,38.57
2018-11-12T17:14:36.891Z,35.77
2018-11-12T17:17:06.549Z,40.17
2018-11-12T17:19:35.987Z,40.07
2018-11-12T17:22:08.775Z,40.63
2018-11-12T17:24:38.155Z,34.17
2018-11-12T17:27:08.589Z,38.90
2018-11-12T17:29:38.502Z,35.33
2018-11-12T17:32:08.366Z,35.13
2018-11-12T17:34:40.438Z,37.87
2018-11-12T17:37:10.767Z,39.07
2018-11-12T17:39:40.266Z,40.20
2018-11-12T17:42:16.165Z,37.87
2018-11-12T17:44:45.667Z,36.50
2018-11-12T17:47:14.898Z,36.17
2018-11-12T17:49:47.625Z,33.97
2018-11-12T17:52:17.348Z,37.17
2018-11-12T17:54:47.575Z,43.07
2018-11-12T17:57:17.247Z,41.93
2018-11-12T17:59:46.604Z,39.53
2018-11-12T18:02:15.885Z,40.20
2018-11-12T18:04:45.366Z,40.50
2018-11-12T18:07:14.839Z,40.73
2018-11-12T18:09:44.160Z,42.20
2018-11-12T18:12:13.311Z,41.07
2018-11-12T18:14:42.922Z,41.63
2018-11-12T18:18:09.349Z,40.47
2018-11-12T18:23:28.701Z,38.23
2018-11-12T18:25:57.930Z,37.97
2018-11-12T18:28:27.109Z,36.10
2018-11-12T18:30:56.521Z,40.03
2018-11-12T18:33:25.734Z,37.90
2018-11-12T18:35:55.247Z,36.53
2018-11-12T18:38:25.509Z,36.87
2018-11-12T18:40:54.822Z,37.67
2018-11-12T18:43:24.479Z,37.20
2018-11-12T18:45:54.045Z,36.40
2018-11-12T18:48:24.862Z,34.70
2018-11-12T18:50:55.939Z,36.67
2018-11-12T18:53:35.098Z,41.30
2018-11-12T18:56:13.853Z,35.37
2018-11-12T18:58:44.276Z,38.70
2018-11-12T19:04:12.905Z,39.47
2018-11-12T19:06:42.543Z,39.33
2018-11-12T19:09:14.048Z,36.57
2018-11-12T19:11:44.364Z,38.03
2018-11-12T19:14:13.998Z,38.27
2018-11-12T19:16:43.476Z,38.27
2018-11-12T19:21:41.938Z,33.27
2018-11-12T19:24:13.825Z,38.40
2018-11-12T19:26:50.742Z,37.00
2018-11-12T19:29:21.946Z,38.70
2018-11-12T19:31:59.030Z,34.37
2018-11-12T19:34:28.683Z,33.43
2018-11-12T19:36:59.091Z,39.97
2018-11-12T19:39:28.720Z,38.07
2018-11-12T19:41:58.287Z,38.53
2018-11-12T19:44:27.628Z,36.17
2018-11-12T19:46:56.933Z,38.90
2018-11-12T19:49:26.232Z,38.03
2018-11-12T19:51:55.924Z,35.33
2018-11-12T19:54:25.091Z,37.97
2018-11-12T19:56:54.459Z,36.70
2018-11-12T19:59:27.843Z,37.63
2018-11-12T20:02:01.607Z,41.03
2018-11-12T20:04:36.210Z,40.33
2018-11-12T20:07:06.350Z,39.57
2018-11-12T20:09:35.620Z,35.43
2018-11-12T20:12:04.920Z,39.27
2018-11-12T20:14:38.416Z,40.90
2018-11-12T20:17:08.016Z,40.57
2018-11-12T20:19:37.472Z,40.00
2018-11-12T20:22:06.790Z,37.57
2018-11-12T20:24:36.188Z,38.07
2018-11-12T20:27:05.378Z,40.40
2018-11-12T20:29:34.807Z,37.43
2018-11-12T20:32:04.431Z,39.00
2018-11-12T20:34:34.182Z,36.27
2018-11-12T20:37:11.603Z,36.60
2018-11-12T20:39:40.945Z,38.20
2018-11-12T20:42:11.045Z,36.13
2018-11-12T20:44:40.647Z,37.50
2018-11-12T20:47:10.290Z,35.77
2018-11-12T20:49:41.435Z,35.83
2018-11-12T20:52:10.647Z,36.40
2018-11-12T20:54:43.737Z,35.93
2018-11-12T20:57:13.278Z,38.13
2018-11-12T20:59:42.809Z,38.47
2018-11-12T21:02:12.492Z,35.90
2018-11-12T21:04:41.656Z,36.97
2018-11-12T21:07:11.505Z,36.77
2018-11-12T21:09:41.624Z,38.97
2018-11-12T21:12:11.906Z,37.43
2018-11-12T21:14:41.507Z,36.03
2018-11-12T21:17:10.666Z,35.43
2018-11-12T21:22:22.200Z,30.77
2018-11-12T21:24:52.071Z,33.57
2018-11-12T21:27:21.140Z,34.30
2018-11-12T21:29:52.427Z,35.00
2018-11-12T21:32:21.652Z,33.57
2018-11-12T21:34:51.026Z,34.90
2018-11-12T21:37:20.497Z,32.30
2018-11-12T21:39:49.846Z,32.20
2018-11-12T21:42:19.143Z,32.47
2018-11-12T21:44:48.639Z,34.60
2018-11-12T21:47:17.876Z,34.07
2018-11-12T21:49:47.147Z,34.17
2018-11-12T21:52:17.343Z,35.27
2018-11-12T21:54:46.541Z,36.30
2018-11-12T21:57:15.686Z,34.47
2018-11-12T21:59:45.024Z,37.60
2018-11-12T22:02:14.244Z,36.47
2018-11-12T22:04:43.767Z,31.53
2018-11-12T22:07:13.105Z,36.23
2018-11-12T22:09:42.205Z,31.13
2018-11-12T22:12:12.031Z,32.77
2018-11-12T22:14:41.648Z,33.60
2018-11-12T22:17:10.813Z,31.73
2018-11-12T22:19:40.202Z,32.27
2018-11-12T22:22:09.336Z,35.87
2018-11-12T22:24:39.225Z,34.93
2018-11-12T22:27:08.520Z,31.50
2018-11-12T22:29:37.727Z,32.87
2018-11-12T22:32:06.857Z,38.23
2018-11-12T22:34:36.012Z,36.17
2018-11-12T22:37:05.714Z,34.67
2018-11-12T22:39:34.708Z,36.33
2018-11-12T22:42:03.806Z,33.30
2018-11-12T22:44:32.939Z,37.03
2018-11-12T22:47:02.065Z,39.87
2018-11-12T22:49:31.311Z,35.70
2018-11-12T22:52:00.824Z,38.40
2018-11-12T22:54:29.794Z,35.67
2018-11-12T22:56:58.805Z,34.43
2018-11-12T22:59:27.902Z,36.63
2018-11-12T23:01:57.413Z,35.00
2018-11-12T23:04:26.562Z,37.23
2018-11-12T23:06:55.780Z,35.27
2018-11-12T23:09:25.252Z,37.03
2018-11-12T23:11:54.355Z,35.07
2018-11-12T23:14:23.545Z,38.73
2018-11-12T23:16:52.857Z,36.70
2018-11-12T23:19:22.012Z,35.53
2018-11-12T23:21:51.254Z,39.63
2018-11-12T23:24:20.586Z,37.63
2018-11-12T23:26:53.205Z,35.67
2018-11-12T23:29:23.581Z,37.93
2018-11-12T23:31:52.764Z,36.60
2018-11-12T23:34:21.790Z,37.53
2018-11-12T23:36:51.896Z,36.67
2018-11-12T23:39:21.579Z,37.73
2018-11-12T23:41:51.047Z,34.60
2018-11-12T23:44:20.154Z,37.23
2018-11-12T23:46:49.363Z,36.17
2018-11-12T23:49:18.447Z,36.30
2018-11-12T23:51:48.211Z,36.30
2018-11-12T23:54:17.095Z,34.23
2018-11-12T23:56:46.101Z,37.23
2018-11-12T23:59:15.227Z,37.33
